sensor_id;sensor_type;location;lat;lon;timestamp;P1;durP1;ratioP1;P2;durP2;ratioP2
41253;SDS011;26987;59.928;30.306;2022-08-21T00:01:52;21.45;;;4.57;;
41253;SDS011;26987;59.928;30.306;2022-08-21T00:04:20;13.77;;;4.47;;
41253;SDS011;26987;59.928;30.306;2022-08-21T00:06:49;11.40;;;4.28;;
41253;SDS011;26987;59.928;30.306;2022-08-21T00:09:18;16.00;;;4.95;;
41253;SDS011;26987;59.928;30.306;2022-08-21T00:11:46;17.67;;;4.13;;
41253;SDS011;26987;59.928;30.306;2022-08-21T00:14:14;14.93;;;4.57;;
41253;SDS011;26987;59.928;30.306;2022-08-21T00:16:43;12.05;;;4.38;;
41253;SDS011;26987;59.928;30.306;2022-08-21T00:19:12;16.75;;;4.75;;
41253;SDS011;26987;59.928;30.306;2022-08-21T00:21:41;12.52;;;4.25;;
41253;SDS011;26987;59.928;30.306;2022-08-21T00:24:09;12.63;;;4.75;;
41253;SDS011;26987;59.928;30.306;2022-08-21T00:26:37;14.25;;;4.80;;
41253;SDS011;26987;59.928;30.306;2022-08-21T00:29:05;14.23;;;5.00;;
41253;SDS011;26987;59.928;30.306;2022-08-21T00:31:33;12.05;;;4.80;;
41253;SDS011;26987;59.928;30.306;2022-08-21T00:34:00;10.68;;;5.00;;
41253;SDS011;26987;59.928;30.306;2022-08-21T00:36:30;16.17;;;4.47;;
41253;SDS011;26987;59.928;30.306;2022-08-21T00:38:58;16.35;;;4.85;;
41253;SDS011;26987;59.928;30.306;2022-08-21T00:41:26;9.05;;;3.97;;
41253;SDS011;26987;59.928;30.306;2022-08-21T00:43:54;17.35;;;4.03;;
41253;SDS011;26987;59.928;30.306;2022-08-21T00:46:22;19.55;;;4.38;;
41253;SDS011;26987;59.928;30.306;2022-08-21T00:48:50;9.95;;;4.45;;
41253;SDS011;26987;59.928;30.306;2022-08-21T00:51:19;12.90;;;5.28;;
41253;SDS011;26987;59.928;30.306;2022-08-21T00:53:54;16.83;;;5.35;;
41253;SDS011;26987;59.928;30.306;2022-08-21T00:56:27;13.25;;;4.18;;
41253;SDS011;26987;59.928;30.306;2022-08-21T00:58:55;10.73;;;4.20;;
41253;SDS011;26987;59.928;30.306;2022-08-21T01:01:26;12.60;;;4.72;;
41253;SDS011;26987;59.928;30.306;2022-08-21T01:03:54;14.85;;;4.60;;
41253;SDS011;26987;59.928;30.306;2022-08-21T01:06:22;16.60;;;4.53;;
41253;SDS011;26987;59.928;30.306;2022-08-21T01:08:50;19.20;;;5.90;;
41253;SDS011;26987;59.928;30.306;2022-08-21T01:11:19;15.85;;;4.22;;
41253;SDS011;26987;59.928;30.306;2022-08-21T01:13:47;14.68;;;4.80;;
41253;SDS011;26987;59.928;30.306;2022-08-21T01:16:19;17.27;;;4.60;;
41253;SDS011;26987;59.928;30.306;2022-08-21T01:18:49;14.27;;;5.05;;
41253;SDS011;26987;59.928;30.306;2022-08-21T01:21:19;19.42;;;5.78;;
41253;SDS011;26987;59.928;30.306;2022-08-21T01:23:50;10.52;;;5.90;;
41253;SDS011;26987;59.928;30.306;2022-08-21T01:26:21;17.02;;;6.65;;
41253;SDS011;26987;59.928;30.306;2022-08-21T01:28:52;11.63;;;6.10;;
41253;SDS011;26987;59.928;30.306;2022-08-21T01:31:26;18.77;;;5.65;;
41253;SDS011;26987;59.928;30.306;2022-08-21T01:33:55;19.58;;;7.13;;
41253;SDS011;26987;59.928;30.306;2022-08-21T01:36:25;11.95;;;5.90;;
41253;SDS011;26987;59.928;30.306;2022-08-21T01:38:54;15.32;;;6.20;;
41253;SDS011;26987;59.928;30.306;2022-08-21T01:41:22;23.00;;;7.32;;
41253;SDS011;26987;59.928;30.306;2022-08-21T01:43:50;19.33;;;6.85;;
41253;SDS011;26987;59.928;30.306;2022-08-21T01:46:18;14.80;;;6.45;;
41253;SDS011;26987;59.928;30.306;2022-08-21T01:48:45;17.67;;;7.35;;
41253;SDS011;26987;59.928;30.306;2022-08-21T01:51:14;19.42;;;6.13;;
41253;SDS011;26987;59.928;30.306;2022-08-21T01:53:43;11.93;;;6.70;;
41253;SDS011;26987;59.928;30.306;2022-08-21T01:56:12;23.55;;;6.80;;
41253;SDS011;26987;59.928;30.306;2022-08-21T01:58:42;11.32;;;5.93;;
41253;SDS011;26987;59.928;30.306;2022-08-21T02:01:12;14.75;;;5.78;;
41253;SDS011;26987;59.928;30.306;2022-08-21T02:03:40;19.38;;;7.18;;
41253;SDS011;26987;59.928;30.306;2022-08-21T02:06:11;12.07;;;5.82;;
41253;SDS011;26987;59.928;30.306;2022-08-21T02:11:12;13.45;;;6.05;;
41253;SDS011;26987;59.928;30.306;2022-08-21T02:13:40;16.80;;;6.18;;
41253;SDS011;26987;59.928;30.306;2022-08-21T02:16:09;11.60;;;6.15;;
41253;SDS011;26987;59.928;30.306;2022-08-21T02:18:37;13.32;;;5.80;;
41253;SDS011;26987;59.928;30.306;2022-08-21T02:21:05;14.82;;;6.10;;
41253;SDS011;26987;59.928;30.306;2022-08-21T02:23:33;20.63;;;6.82;;
41253;SDS011;26987;59.928;30.306;2022-08-21T02:26:04;17.55;;;6.20;;
41253;SDS011;26987;59.928;30.306;2022-08-21T02:28:33;21.73;;;7.43;;
41253;SDS011;26987;59.928;30.306;2022-08-21T02:31:02;17.52;;;7.40;;
41253;SDS011;26987;59.928;30.306;2022-08-21T02:33:31;19.65;;;7.35;;
41253;SDS011;26987;59.928;30.306;2022-08-21T02:35:59;22.70;;;7.28;;
41253;SDS011;26987;59.928;30.306;2022-08-21T02:38:28;18.40;;;7.20;;
41253;SDS011;26987;59.928;30.306;2022-08-21T02:40:59;27.08;;;8.63;;
41253;SDS011;26987;59.928;30.306;2022-08-21T02:43:29;19.27;;;7.80;;
41253;SDS011;26987;59.928;30.306;2022-08-21T02:45:57;21.00;;;7.13;;
41253;SDS011;26987;59.928;30.306;2022-08-21T02:48:26;24.15;;;8.30;;
41253;SDS011;26987;59.928;30.306;2022-08-21T02:51:02;19.02;;;7.63;;
41253;SDS011;26987;59.928;30.306;2022-08-21T02:53:33;15.63;;;7.25;;
41253;SDS011;26987;59.928;30.306;2022-08-21T02:56:03;16.27;;;7.32;;
41253;SDS011;26987;59.928;30.306;2022-08-21T02:58:37;22.02;;;6.53;;
41253;SDS011;26987;59.928;30.306;2022-08-21T03:01:07;19.70;;;6.78;;
41253;SDS011;26987;59.928;30.306;2022-08-21T03:03:36;17.40;;;6.68;;
41253;SDS011;26987;59.928;30.306;2022-08-21T03:06:05;14.82;;;7.13;;
41253;SDS011;26987;59.928;30.306;2022-08-21T03:08:34;17.15;;;6.85;;
41253;SDS011;26987;59.928;30.306;2022-08-21T03:11:03;20.92;;;6.82;;
41253;SDS011;26987;59.928;30.306;2022-08-21T03:13:32;14.40;;;6.95;;
41253;SDS011;26987;59.928;30.306;2022-08-21T03:16:01;19.17;;;6.63;;
41253;SDS011;26987;59.928;30.306;2022-08-21T03:18:29;13.55;;;6.43;;
41253;SDS011;26987;59.928;30.306;2022-08-21T03:20:57;18.15;;;6.20;;
41253;SDS011;26987;59.928;30.306;2022-08-21T03:23:25;13.50;;;6.22;;
41253;SDS011;26987;59.928;30.306;2022-08-21T03:25:53;14.35;;;6.05;;
41253;SDS011;26987;59.928;30.306;2022-08-21T03:28:21;18.92;;;6.40;;
41253;SDS011;26987;59.928;30.306;2022-08-21T03:30:49;16.13;;;5.82;;
41253;SDS011;26987;59.928;30.306;2022-08-21T03:33:20;16.70;;;6.32;;
41253;SDS011;26987;59.928;30.306;2022-08-21T03:35:52;13.80;;;5.97;;
41253;SDS011;26987;59.928;30.306;2022-08-21T03:38:26;16.45;;;6.57;;
41253;SDS011;26987;59.928;30.306;2022-08-21T03:40:57;18.20;;;6.88;;
41253;SDS011;26987;59.928;30.306;2022-08-21T03:43:26;18.30;;;6.18;;
41253;SDS011;26987;59.928;30.306;2022-08-21T03:45:54;12.73;;;6.25;;
41253;SDS011;26987;59.928;30.306;2022-08-21T03:48:23;14.57;;;5.93;;
41253;SDS011;26987;59.928;30.306;2022-08-21T03:50:51;12.15;;;7.05;;
41253;SDS011;26987;59.928;30.306;2022-08-21T03:53:20;17.50;;;6.53;;
41253;SDS011;26987;59.928;30.306;2022-08-21T03:55:49;12.48;;;6.78;;
41253;SDS011;26987;59.928;30.306;2022-08-21T03:58:20;16.23;;;5.97;;
41253;SDS011;26987;59.928;30.306;2022-08-21T04:00:51;18.70;;;6.97;;
41253;SDS011;26987;59.928;30.306;2022-08-21T04:03:23;14.60;;;6.20;;
41253;SDS011;26987;59.928;30.306;2022-08-21T04:05:51;14.55;;;6.10;;
41253;SDS011;26987;59.928;30.306;2022-08-21T04:08:19;20.98;;;6.20;;
41253;SDS011;26987;59.928;30.306;2022-08-21T04:10:48;15.25;;;6.32;;
41253;SDS011;26987;59.928;30.306;2022-08-21T04:13:18;18.50;;;6.32;;
41253;SDS011;26987;59.928;30.306;2022-08-21T04:15:46;13.85;;;6.22;;
41253;SDS011;26987;59.928;30.306;2022-08-21T04:18:14;12.98;;;5.93;;
41253;SDS011;26987;59.928;30.306;2022-08-21T04:20:44;9.82;;;5.68;;
41253;SDS011;26987;59.928;30.306;2022-08-21T04:23:13;11.65;;;6.10;;
41253;SDS011;26987;59.928;30.306;2022-08-21T04:25:41;11.68;;;6.07;;
41253;SDS011;26987;59.928;30.306;2022-08-21T04:28:09;12.77;;;5.43;;
41253;SDS011;26987;59.928;30.306;2022-08-21T04:30:37;11.73;;;5.97;;
41253;SDS011;26987;59.928;30.306;2022-08-21T04:33:05;10.63;;;5.65;;
41253;SDS011;26987;59.928;30.306;2022-08-21T04:35:33;10.43;;;5.78;;
41253;SDS011;26987;59.928;30.306;2022-08-21T04:38:02;9.52;;;5.70;;
41253;SDS011;26987;59.928;30.306;2022-08-21T04:40:30;15.07;;;5.80;;
41253;SDS011;26987;59.928;30.306;2022-08-21T04:43:01;11.32;;;5.82;;
41253;SDS011;26987;59.928;30.306;2022-08-21T04:45:32;14.30;;;6.57;;
41253;SDS011;26987;59.928;30.306;2022-08-21T04:48:03;13.98;;;5.40;;
41253;SDS011;26987;59.928;30.306;2022-08-21T04:50:35;12.77;;;5.55;;
41253;SDS011;26987;59.928;30.306;2022-08-21T04:53:10;13.13;;;6.10;;
41253;SDS011;26987;59.928;30.306;2022-08-21T04:55:41;11.80;;;7.05;;
41253;SDS011;26987;59.928;30.306;2022-08-21T04:58:10;10.13;;;6.07;;
41253;SDS011;26987;59.928;30.306;2022-08-21T05:00:40;12.32;;;6.25;;
41253;SDS011;26987;59.928;30.306;2022-08-21T05:03:08;14.23;;;6.07;;
41253;SDS011;26987;59.928;30.306;2022-08-21T05:05:38;10.93;;;6.40;;
41253;SDS011;26987;59.928;30.306;2022-08-21T05:08:08;9.57;;;5.53;;
41253;SDS011;26987;59.928;30.306;2022-08-21T05:10:40;12.27;;;5.37;;
41253;SDS011;26987;59.928;30.306;2022-08-21T05:13:09;11.35;;;5.30;;
41253;SDS011;26987;59.928;30.306;2022-08-21T05:15:38;11.90;;;5.50;;
41253;SDS011;26987;59.928;30.306;2022-08-21T05:18:06;13.95;;;5.70;;
41253;SDS011;26987;59.928;30.306;2022-08-21T05:20:34;12.63;;;5.70;;
41253;SDS011;26987;59.928;30.306;2022-08-21T05:23:05;10.40;;;5.10;;
41253;SDS011;26987;59.928;30.306;2022-08-21T05:25:36;11.38;;;5.45;;
41253;SDS011;26987;59.928;30.306;2022-08-21T05:28:04;11.90;;;4.80;;
41253;SDS011;26987;59.928;30.306;2022-08-21T05:30:33;9.88;;;6.07;;
41253;SDS011;26987;59.928;30.306;2022-08-21T05:33:02;10.75;;;5.60;;
41253;SDS011;26987;59.928;30.306;2022-08-21T05:35:31;19.20;;;6.35;;
41253;SDS011;26987;59.928;30.306;2022-08-21T05:38:00;13.52;;;5.43;;
41253;SDS011;26987;59.928;30.306;2022-08-21T05:40:29;15.57;;;5.70;;
41253;SDS011;26987;59.928;30.306;2022-08-21T05:42:58;17.27;;;5.35;;
41253;SDS011;26987;59.928;30.306;2022-08-21T05:45:27;11.60;;;5.97;;
41253;SDS011;26987;59.928;30.306;2022-08-21T05:47:57;11.45;;;5.47;;
41253;SDS011;26987;59.928;30.306;2022-08-21T05:50:25;13.98;;;5.10;;
41253;SDS011;26987;59.928;30.306;2022-08-21T05:52:53;20.33;;;5.75;;
41253;SDS011;26987;59.928;30.306;2022-08-21T05:55:21;12.13;;;5.75;;
41253;SDS011;26987;59.928;30.306;2022-08-21T05:57:51;23.95;;;6.80;;
41253;SDS011;26987;59.928;30.306;2022-08-21T06:00:19;20.63;;;5.68;;
41253;SDS011;26987;59.928;30.306;2022-08-21T06:02:49;18.40;;;6.07;;
41253;SDS011;26987;59.928;30.306;2022-08-21T06:05:17;10.88;;;5.47;;
41253;SDS011;26987;59.928;30.306;2022-08-21T06:07:45;9.18;;;4.90;;
41253;SDS011;26987;59.928;30.306;2022-08-21T06:10:13;11.15;;;5.15;;
41253;SDS011;26987;59.928;30.306;2022-08-21T06:12:41;13.52;;;6.18;;
41253;SDS011;26987;59.928;30.306;2022-08-21T06:15:10;10.30;;;4.82;;
41253;SDS011;26987;59.928;30.306;2022-08-21T06:17:38;16.98;;;6.00;;
41253;SDS011;26987;59.928;30.306;2022-08-21T06:20:06;21.25;;;6.10;;
41253;SDS011;26987;59.928;30.306;2022-08-21T06:22:35;15.98;;;6.07;;
41253;SDS011;26987;59.928;30.306;2022-08-21T06:25:03;14.93;;;5.57;;
41253;SDS011;26987;59.928;30.306;2022-08-21T06:27:32;15.05;;;6.30;;
41253;SDS011;26987;59.928;30.306;2022-08-21T06:30:00;14.65;;;5.20;;
41253;SDS011;26987;59.928;30.306;2022-08-21T06:32:30;12.15;;;5.68;;
41253;SDS011;26987;59.928;30.306;2022-08-21T06:34:58;21.20;;;6.30;;
41253;SDS011;26987;59.928;30.306;2022-08-21T06:37:26;13.88;;;5.53;;
41253;SDS011;26987;59.928;30.306;2022-08-21T06:39:54;15.88;;;6.05;;
41253;SDS011;26987;59.928;30.306;2022-08-21T06:42:22;12.25;;;5.88;;
41253;SDS011;26987;59.928;30.306;2022-08-21T06:44:50;10.63;;;4.90;;
41253;SDS011;26987;59.928;30.306;2022-08-21T06:47:18;13.35;;;5.60;;
41253;SDS011;26987;59.928;30.306;2022-08-21T06:49:47;13.55;;;5.32;;
41253;SDS011;26987;59.928;30.306;2022-08-21T06:52:15;20.50;;;6.18;;
41253;SDS011;26987;59.928;30.306;2022-08-21T06:54:43;14.00;;;5.20;;
41253;SDS011;26987;59.928;30.306;2022-08-21T06:57:11;9.68;;;5.90;;
41253;SDS011;26987;59.928;30.306;2022-08-21T06:59:39;12.25;;;6.03;;
41253;SDS011;26987;59.928;30.306;2022-08-21T07:02:07;11.23;;;5.78;;
41253;SDS011;26987;59.928;30.306;2022-08-21T07:04:35;9.75;;;5.65;;
41253;SDS011;26987;59.928;30.306;2022-08-21T07:07:04;14.40;;;5.68;;
41253;SDS011;26987;59.928;30.306;2022-08-21T07:09:32;10.48;;;5.60;;
41253;SDS011;26987;59.928;30.306;2022-08-21T07:12:00;15.20;;;5.97;;
41253;SDS011;26987;59.928;30.306;2022-08-21T07:14:30;9.45;;;5.57;;
41253;SDS011;26987;59.928;30.306;2022-08-21T07:16:57;18.27;;;6.93;;
41253;SDS011;26987;59.928;30.306;2022-08-21T07:19:26;11.85;;;4.95;;
41253;SDS011;26987;59.928;30.306;2022-08-21T07:21:55;11.23;;;5.50;;
41253;SDS011;26987;59.928;30.306;2022-08-21T07:24:26;14.75;;;6.75;;
41253;SDS011;26987;59.928;30.306;2022-08-21T07:26:55;16.13;;;5.68;;
41253;SDS011;26987;59.928;30.306;2022-08-21T07:29:23;11.57;;;5.55;;
41253;SDS011;26987;59.928;30.306;2022-08-21T07:31:51;12.98;;;5.88;;
41253;SDS011;26987;59.928;30.306;2022-08-21T07:34:19;14.07;;;5.60;;
41253;SDS011;26987;59.928;30.306;2022-08-21T07:36:47;11.93;;;5.07;;
41253;SDS011;26987;59.928;30.306;2022-08-21T07:39:15;10.10;;;5.45;;
41253;SDS011;26987;59.928;30.306;2022-08-21T07:41:44;23.02;;;6.07;;
41253;SDS011;26987;59.928;30.306;2022-08-21T07:44:12;16.60;;;5.60;;
41253;SDS011;26987;59.928;30.306;2022-08-21T07:46:40;12.68;;;5.55;;
41253;SDS011;26987;59.928;30.306;2022-08-21T07:49:08;12.88;;;6.05;;
41253;SDS011;26987;59.928;30.306;2022-08-21T07:51:36;11.93;;;6.70;;
41253;SDS011;26987;59.928;30.306;2022-08-21T07:54:04;16.63;;;6.93;;
41253;SDS011;26987;59.928;30.306;2022-08-21T07:56:32;13.60;;;6.45;;
41253;SDS011;26987;59.928;30.306;2022-08-21T07:59:02;15.88;;;6.13;;
41253;SDS011;26987;59.928;30.306;2022-08-21T08:01:30;14.25;;;5.75;;
41253;SDS011;26987;59.928;30.306;2022-08-21T08:03:58;20.67;;;7.25;;
41253;SDS011;26987;59.928;30.306;2022-08-21T08:06:26;14.60;;;6.50;;
41253;SDS011;26987;59.928;30.306;2022-08-21T08:08:54;14.50;;;6.60;;
41253;SDS011;26987;59.928;30.306;2022-08-21T08:11:22;15.73;;;6.60;;
41253;SDS011;26987;59.928;30.306;2022-08-21T08:13:50;14.02;;;6.45;;
41253;SDS011;26987;59.928;30.306;2022-08-21T08:16:20;14.55;;;6.47;;
41253;SDS011;26987;59.928;30.306;2022-08-21T08:18:48;10.65;;;7.30;;
41253;SDS011;26987;59.928;30.306;2022-08-21T08:21:17;10.80;;;6.43;;
41253;SDS011;26987;59.928;30.306;2022-08-21T08:23:46;16.08;;;6.53;;
41253;SDS011;26987;59.928;30.306;2022-08-21T08:26:14;14.48;;;7.25;;
41253;SDS011;26987;59.928;30.306;2022-08-21T08:28:43;15.70;;;6.60;;
41253;SDS011;26987;59.928;30.306;2022-08-21T08:31:13;17.38;;;6.88;;
41253;SDS011;26987;59.928;30.306;2022-08-21T08:33:42;14.35;;;7.15;;
41253;SDS011;26987;59.928;30.306;2022-08-21T08:36:13;13.27;;;8.10;;
41253;SDS011;26987;59.928;30.306;2022-08-21T08:38:43;15.95;;;7.63;;
41253;SDS011;26987;59.928;30.306;2022-08-21T08:41:12;16.83;;;7.40;;
41253;SDS011;26987;59.928;30.306;2022-08-21T08:43:42;22.20;;;7.35;;
41253;SDS011;26987;59.928;30.306;2022-08-21T08:46:16;18.58;;;7.53;;
41253;SDS011;26987;59.928;30.306;2022-08-21T08:48:49;14.18;;;7.47;;
41253;SDS011;26987;59.928;30.306;2022-08-21T08:51:23;23.40;;;9.80;;
41253;SDS011;26987;59.928;30.306;2022-08-21T08:53:54;17.00;;;7.32;;
41253;SDS011;26987;59.928;30.306;2022-08-21T08:56:28;14.57;;;6.97;;
41253;SDS011;26987;59.928;30.306;2022-08-21T08:58:59;16.45;;;6.72;;
41253;SDS011;26987;59.928;30.306;2022-08-21T09:01:30;16.45;;;7.00;;
41253;SDS011;26987;59.928;30.306;2022-08-21T09:03:59;12.82;;;7.05;;
41253;SDS011;26987;59.928;30.306;2022-08-21T09:06:31;17.20;;;7.93;;
41253;SDS011;26987;59.928;30.306;2022-08-21T09:09:14;15.20;;;6.93;;
41253;SDS011;26987;59.928;30.306;2022-08-21T09:11:59;16.75;;;6.93;;
41253;SDS011;26987;59.928;30.306;2022-08-21T09:14:32;15.60;;;6.93;;
41253;SDS011;26987;59.928;30.306;2022-08-21T09:17:18;15.05;;;6.80;;
41253;SDS011;26987;59.928;30.306;2022-08-21T09:20:02;15.48;;;6.65;;
41253;SDS011;26987;59.928;30.306;2022-08-21T09:22:43;11.05;;;6.45;;
41253;SDS011;26987;59.928;30.306;2022-08-21T09:25:20;14.93;;;6.28;;
41253;SDS011;26987;59.928;30.306;2022-08-21T09:27:51;12.90;;;5.97;;
41253;SDS011;26987;59.928;30.306;2022-08-21T09:30:19;15.02;;;5.95;;
41253;SDS011;26987;59.928;30.306;2022-08-21T09:32:53;14.05;;;6.50;;
41253;SDS011;26987;59.928;30.306;2022-08-21T09:35:23;13.40;;;6.80;;
41253;SDS011;26987;59.928;30.306;2022-08-21T09:37:53;11.15;;;6.18;;
41253;SDS011;26987;59.928;30.306;2022-08-21T09:40:27;20.50;;;6.35;;
41253;SDS011;26987;59.928;30.306;2022-08-21T09:43:01;15.95;;;6.93;;
41253;SDS011;26987;59.928;30.306;2022-08-21T09:45:31;11.82;;;6.20;;
41253;SDS011;26987;59.928;30.306;2022-08-21T09:48:12;13.95;;;6.05;;
41253;SDS011;26987;59.928;30.306;2022-08-21T09:50:44;14.55;;;6.10;;
41253;SDS011;26987;59.928;30.306;2022-08-21T09:53:15;12.30;;;6.45;;
41253;SDS011;26987;59.928;30.306;2022-08-21T09:55:49;11.50;;;6.18;;
41253;SDS011;26987;59.928;30.306;2022-08-21T09:58:37;14.50;;;6.63;;
41253;SDS011;26987;59.928;30.306;2022-08-21T10:01:11;17.08;;;6.18;;
41253;SDS011;26987;59.928;30.306;2022-08-21T10:03:41;13.98;;;6.25;;
41253;SDS011;26987;59.928;30.306;2022-08-21T10:06:20;15.27;;;6.55;;
41253;SDS011;26987;59.928;30.306;2022-08-21T10:08:50;12.05;;;6.45;;
41253;SDS011;26987;59.928;30.306;2022-08-21T10:11:18;13.02;;;5.93;;
41253;SDS011;26987;59.928;30.306;2022-08-21T10:13:58;11.63;;;6.25;;
41253;SDS011;26987;59.928;30.306;2022-08-21T10:16:31;12.40;;;5.95;;
41253;SDS011;26987;59.928;30.306;2022-08-21T10:19:14;13.80;;;5.97;;
41253;SDS011;26987;59.928;30.306;2022-08-21T10:21:51;12.10;;;6.55;;
41253;SDS011;26987;59.928;30.306;2022-08-21T10:24:31;11.85;;;6.45;;
41253;SDS011;26987;59.928;30.306;2022-08-21T10:27:05;13.40;;;6.15;;
41253;SDS011;26987;59.928;30.306;2022-08-21T10:29:47;12.30;;;6.70;;
41253;SDS011;26987;59.928;30.306;2022-08-21T10:32:28;14.02;;;6.50;;
41253;SDS011;26987;59.928;30.306;2022-08-21T10:35:13;11.45;;;6.13;;
41253;SDS011;26987;59.928;30.306;2022-08-21T10:37:52;12.60;;;5.75;;
41253;SDS011;26987;59.928;30.306;2022-08-21T10:40:40;8.73;;;5.75;;
41253;SDS011;26987;59.928;30.306;2022-08-21T10:43:18;14.07;;;5.50;;
41253;SDS011;26987;59.928;30.306;2022-08-21T10:45:56;15.30;;;5.93;;
41253;SDS011;26987;59.928;30.306;2022-08-21T10:48:29;10.00;;;5.45;;
41253;SDS011;26987;59.928;30.306;2022-08-21T10:51:04;14.95;;;6.38;;
41253;SDS011;26987;59.928;30.306;2022-08-21T10:53:41;15.35;;;5.18;;
41253;SDS011;26987;59.928;30.306;2022-08-21T10:56:19;15.27;;;6.75;;
41253;SDS011;26987;59.928;30.306;2022-08-21T10:58:53;17.50;;;6.28;;
41253;SDS011;26987;59.928;30.306;2022-08-21T11:01:27;11.73;;;6.47;;
41253;SDS011;26987;59.928;30.306;2022-08-21T11:04:04;15.23;;;6.03;;
41253;SDS011;26987;59.928;30.306;2022-08-21T11:06:40;12.38;;;6.43;;
41253;SDS011;26987;59.928;30.306;2022-08-21T11:09:16;11.40;;;6.18;;
41253;SDS011;26987;59.928;30.306;2022-08-21T11:11:47;10.73;;;6.28;;
41253;SDS011;26987;59.928;30.306;2022-08-21T11:14:21;9.75;;;5.43;;
41253;SDS011;26987;59.928;30.306;2022-08-21T11:16:57;11.73;;;5.60;;
41253;SDS011;26987;59.928;30.306;2022-08-21T11:19:35;16.55;;;7.50;;
41253;SDS011;26987;59.928;30.306;2022-08-21T11:22:11;13.95;;;7.20;;
41253;SDS011;26987;59.928;30.306;2022-08-21T11:24:46;12.23;;;7.05;;
41253;SDS011;26987;59.928;30.306;2022-08-21T11:27:22;14.57;;;6.03;;
41253;SDS011;26987;59.928;30.306;2022-08-21T11:29:54;10.52;;;6.18;;
41253;SDS011;26987;59.928;30.306;2022-08-21T11:32:27;13.25;;;5.88;;
41253;SDS011;26987;59.928;30.306;2022-08-21T11:35:09;16.48;;;6.10;;
41253;SDS011;26987;59.928;30.306;2022-08-21T11:37:45;13.90;;;6.43;;
41253;SDS011;26987;59.928;30.306;2022-08-21T11:40:31;14.98;;;5.93;;
41253;SDS011;26987;59.928;30.306;2022-08-21T11:43:12;15.40;;;6.80;;
41253;SDS011;26987;59.928;30.306;2022-08-21T11:45:50;17.63;;;6.00;;
41253;SDS011;26987;59.928;30.306;2022-08-21T11:48:25;14.30;;;6.13;;
41253;SDS011;26987;59.928;30.306;2022-08-21T11:51:04;10.60;;;5.22;;
41253;SDS011;26987;59.928;30.306;2022-08-21T11:53:38;13.45;;;6.03;;
41253;SDS011;26987;59.928;30.306;2022-08-21T11:56:19;13.35;;;5.78;;
41253;SDS011;26987;59.928;30.306;2022-08-21T11:58:53;10.98;;;5.03;;
41253;SDS011;26987;59.928;30.306;2022-08-21T12:01:27;12.37;;;5.77;;
41253;SDS011;26987;59.928;30.306;2022-08-21T12:03:58;12.77;;;4.90;;
41253;SDS011;26987;59.928;30.306;2022-08-21T12:06:30;16.10;;;5.45;;
41253;SDS011;26987;59.928;30.306;2022-08-21T12:09:01;10.63;;;4.47;;
41253;SDS011;26987;59.928;30.306;2022-08-21T12:11:43;17.17;;;4.90;;
41253;SDS011;26987;59.928;30.306;2022-08-21T12:14:14;11.43;;;5.15;;
41253;SDS011;26987;59.928;30.306;2022-08-21T12:16:44;16.17;;;4.63;;
41253;SDS011;26987;59.928;30.306;2022-08-21T12:19:27;17.20;;;4.72;;
41253;SDS011;26987;59.928;30.306;2022-08-21T12:21:58;13.68;;;4.93;;
41253;SDS011;26987;59.928;30.306;2022-08-21T12:24:35;22.20;;;5.97;;
41253;SDS011;26987;59.928;30.306;2022-08-21T12:27:21;17.02;;;5.25;;
41253;SDS011;26987;59.928;30.306;2022-08-21T12:29:55;11.73;;;4.22;;
41253;SDS011;26987;59.928;30.306;2022-08-21T12:32:27;9.93;;;4.10;;
41253;SDS011;26987;59.928;30.306;2022-08-21T12:35:00;16.15;;;4.13;;
41253;SDS011;26987;59.928;30.306;2022-08-21T12:37:36;9.55;;;4.55;;
41253;SDS011;26987;59.928;30.306;2022-08-21T12:40:10;7.53;;;4.40;;
41253;SDS011;26987;59.928;30.306;2022-08-21T12:42:47;10.93;;;4.47;;
41253;SDS011;26987;59.928;30.306;2022-08-21T12:45:19;9.45;;;4.40;;
41253;SDS011;26987;59.928;30.306;2022-08-21T12:47:54;7.78;;;4.43;;
41253;SDS011;26987;59.928;30.306;2022-08-21T12:50:29;10.00;;;4.15;;
41253;SDS011;26987;59.928;30.306;2022-08-21T12:53:04;11.20;;;4.40;;
41253;SDS011;26987;59.928;30.306;2022-08-21T12:55:40;11.77;;;4.47;;
41253;SDS011;26987;59.928;30.306;2022-08-21T12:58:18;9.90;;;4.05;;
41253;SDS011;26987;59.928;30.306;2022-08-21T13:00:50;11.00;;;5.50;;
41253;SDS011;26987;59.928;30.306;2022-08-21T13:03:21;14.52;;;4.78;;
41253;SDS011;26987;59.928;30.306;2022-08-21T13:05:49;12.98;;;3.72;;
41253;SDS011;26987;59.928;30.306;2022-08-21T13:08:19;7.90;;;3.63;;
41253;SDS011;26987;59.928;30.306;2022-08-21T13:10:49;15.43;;;5.20;;
41253;SDS011;26987;59.928;30.306;2022-08-21T13:13:27;12.70;;;4.03;;
41253;SDS011;26987;59.928;30.306;2022-08-21T13:15:56;7.50;;;3.83;;
41253;SDS011;26987;59.928;30.306;2022-08-21T13:18:27;9.45;;;4.65;;
41253;SDS011;26987;59.928;30.306;2022-08-21T13:21:03;11.98;;;4.00;;
41253;SDS011;26987;59.928;30.306;2022-08-21T13:23:32;11.43;;;4.43;;
41253;SDS011;26987;59.928;30.306;2022-08-21T13:26:01;9.15;;;3.85;;
41253;SDS011;26987;59.928;30.306;2022-08-21T13:28:40;6.50;;;3.53;;
41253;SDS011;26987;59.928;30.306;2022-08-21T13:31:09;8.63;;;3.70;;
41253;SDS011;26987;59.928;30.306;2022-08-21T13:33:38;6.88;;;3.70;;
41253;SDS011;26987;59.928;30.306;2022-08-21T13:36:09;6.47;;;4.15;;
41253;SDS011;26987;59.928;30.306;2022-08-21T13:38:40;7.28;;;4.07;;
41253;SDS011;26987;59.928;30.306;2022-08-21T13:41:11;9.20;;;3.70;;
41253;SDS011;26987;59.928;30.306;2022-08-21T13:43:56;7.90;;;4.05;;
41253;SDS011;26987;59.928;30.306;2022-08-21T13:46:26;13.88;;;4.40;;
41253;SDS011;26987;59.928;30.306;2022-08-21T13:48:58;14.90;;;4.43;;
41253;SDS011;26987;59.928;30.306;2022-08-21T13:51:27;10.50;;;4.13;;
41253;SDS011;26987;59.928;30.306;2022-08-21T13:53:56;8.60;;;4.68;;
41253;SDS011;26987;59.928;30.306;2022-08-21T13:56:25;16.73;;;5.07;;
41253;SDS011;26987;59.928;30.306;2022-08-21T13:58:57;17.27;;;4.75;;
41253;SDS011;26987;59.928;30.306;2022-08-21T14:01:27;9.07;;;4.90;;
41253;SDS011;26987;59.928;30.306;2022-08-21T14:03:59;14.55;;;5.10;;
41253;SDS011;26987;59.928;30.306;2022-08-21T14:06:33;18.08;;;6.03;;
41253;SDS011;26987;59.928;30.306;2022-08-21T14:09:07;14.38;;;5.38;;
41253;SDS011;26987;59.928;30.306;2022-08-21T14:11:37;18.60;;;4.97;;
41253;SDS011;26987;59.928;30.306;2022-08-21T14:14:12;12.50;;;5.70;;
41253;SDS011;26987;59.928;30.306;2022-08-21T14:16:52;10.32;;;5.63;;
41253;SDS011;26987;59.928;30.306;2022-08-21T14:19:23;10.18;;;5.55;;
41253;SDS011;26987;59.928;30.306;2022-08-21T14:21:53;10.73;;;5.43;;
41253;SDS011;26987;59.928;30.306;2022-08-21T14:24:26;16.15;;;6.10;;
41253;SDS011;26987;59.928;30.306;2022-08-21T14:26:56;13.65;;;5.40;;
41253;SDS011;26987;59.928;30.306;2022-08-21T14:29:32;11.10;;;5.82;;
41253;SDS011;26987;59.928;30.306;2022-08-21T14:32:08;18.15;;;6.18;;
41253;SDS011;26987;59.928;30.306;2022-08-21T14:34:43;14.25;;;6.00;;
41253;SDS011;26987;59.928;30.306;2022-08-21T14:37:11;13.85;;;7.20;;
41253;SDS011;26987;59.928;30.306;2022-08-21T14:39:39;9.25;;;6.70;;
41253;SDS011;26987;59.928;30.306;2022-08-21T14:42:07;11.00;;;6.05;;
41253;SDS011;26987;59.928;30.306;2022-08-21T14:44:36;16.95;;;7.00;;
41253;SDS011;26987;59.928;30.306;2022-08-21T14:47:04;15.25;;;7.72;;
41253;SDS011;26987;59.928;30.306;2022-08-21T14:49:32;13.20;;;7.13;;